Terminal Aerodrome Forecast
Issued by NWS Austin/San Antonio, TX

Home | Current Version | Previous Version | Text Only | Print | Product List | Glossary On
Versions: 1 2 3 4 5 6 7 8 9 10 11 12 13 14 15 16 17
000
FTUS44 KEWX 312300 RRA
TAFAUS
TAF
KAUS 312348Z 0100/0206 10005KT 3SM -RA BR OVC015
     FM010600 16010KT 1SM BR OVC009
      TEMPO 0111/0115 1/2SM FG OVC004
     FM011600 24009KT 5SM BR OVC010
     FM011900 34013KT P6SM OVC050
     FM012200 01017G27KT P6SM BKN100=

USA.gov is the U.S. government's official web portal to all federal, state and local government web resources and services.